createdAt,value
2019-04-20T00:02:13.844Z,14.27
2019-04-20T00:04:39.095Z,16.13
2019-04-20T00:07:10.210Z,14.57
2019-04-20T00:09:45.425Z,14.70
2019-04-20T00:12:19.137Z,15.90
2019-04-20T00:14:44.301Z,17.23
2019-04-20T00:17:14.250Z,16.97
2019-04-20T00:19:50.164Z,17.30
2019-04-20T00:22:24.651Z,16.93
2019-04-20T00:25:12.619Z,18.57
2019-04-20T00:27:59.764Z,19.10
2019-04-20T00:30:31.435Z,19.43
2019-04-20T00:32:55.756Z,19.47
2019-04-20T00:35:18.844Z,17.47
2019-04-20T00:37:48.936Z,17.13
2019-04-20T00:40:19.442Z,15.17
2019-04-20T00:42:53.851Z,10.90
2019-04-20T00:45:25.773Z,11.70
2019-04-20T00:47:59.264Z,10.40
2019-04-20T00:50:41.788Z,10.87
2019-04-20T00:53:06.797Z,10.27
2019-04-20T00:55:29.264Z,10.50
2019-04-20T00:58:09.394Z,11.27
2019-04-20T01:01:00.148Z,11.33
2019-04-20T01:03:29.201Z,10.40
2019-04-20T01:06:06.319Z,9.53
2019-04-20T01:08:21.243Z,10.27
2019-04-20T01:10:56.596Z,9.00
2019-04-20T01:13:28.159Z,9.80
2019-04-20T01:16:07.620Z,10.03
2019-04-20T01:18:32.894Z,9.20
2019-04-20T01:21:12.691Z,10.50
2019-04-20T01:23:47.633Z,10.30
2019-04-20T01:26:14.490Z,8.93
2019-04-20T01:28:54.109Z,10.13
2019-04-20T01:31:25.471Z,8.80
2019-04-20T01:33:56.559Z,9.20
2019-04-20T01:36:37.073Z,10.17
2019-04-20T01:39:05.489Z,8.73
2019-04-20T01:41:20.335Z,8.77
2019-04-20T01:43:50.353Z,8.50
2019-04-20T01:46:23.434Z,9.30
2019-04-20T01:48:52.644Z,9.57
2019-04-20T01:51:27.284Z,9.30
2019-04-20T01:54:13.515Z,9.47
2019-04-20T01:56:40.484Z,8.67
2019-04-20T01:59:22.986Z,9.23
2019-04-20T02:01:45.956Z,9.53
2019-04-20T02:04:27.159Z,8.57
2019-04-20T02:06:56.404Z,9.57
2019-04-20T02:09:27.342Z,9.10
2019-04-20T02:11:55.729Z,8.97
2019-04-20T02:14:34.236Z,10.07
2019-04-20T02:17:08.375Z,9.77
2019-04-20T02:19:43.247Z,9.87
2019-04-20T02:22:14.927Z,9.70
2019-04-20T02:24:34.028Z,9.67
2019-04-20T02:27:04.386Z,10.07
2019-04-20T02:29:58.287Z,10.50
2019-04-20T02:35:18.657Z,10.40
2019-04-20T02:38:05.654Z,11.23
2019-04-20T02:40:45.089Z,10.47
2019-04-20T02:48:02.800Z,11.07
2019-04-20T02:53:15.653Z,11.53
2019-04-20T03:00:36.766Z,11.13
2019-04-20T03:02:53.673Z,10.37
2019-04-20T03:05:26.251Z,11.40
2019-04-20T03:08:02.779Z,10.93
2019-04-20T03:10:44.508Z,9.50
2019-04-20T03:13:08.751Z,9.93
2019-04-20T03:15:46.311Z,10.33
2019-04-20T03:18:15.717Z,11.03
2019-04-20T03:20:46.308Z,9.70
2019-04-20T03:23:35.651Z,9.30
2019-04-20T03:25:53.437Z,9.67
2019-04-20T03:28:28.776Z,10.20
2019-04-20T03:36:18.342Z,10.67
2019-04-20T03:38:41.438Z,10.30
2019-04-20T03:41:04.855Z,10.87
2019-04-20T03:43:24.969Z,11.30
2019-04-20T03:46:01.447Z,10.97
2019-04-20T03:48:41.314Z,10.03
2019-04-20T03:51:26.899Z,10.83
2019-04-20T03:54:05.913Z,10.27
2019-04-20T03:56:46.344Z,10.07
2019-04-20T03:59:33.804Z,10.50
2019-04-20T04:02:49.401Z,10.30
2019-04-20T04:05:07.312Z,10.60
2019-04-20T04:07:24.856Z,11.20
2019-04-20T04:10:06.709Z,11.03
2019-04-20T04:12:56.790Z,10.90
2019-04-20T04:15:27.548Z,11.13
2019-04-20T04:18:04.391Z,10.60
2019-04-20T04:20:40.751Z,11.17
2019-04-20T04:23:19.255Z,11.30
2019-04-20T04:25:53.131Z,11.20
2019-04-20T04:28:19.510Z,11.33
2019-04-20T04:30:59.775Z,10.97
2019-04-20T04:35:59.287Z,12.13
2019-04-20T04:38:37.557Z,12.30
2019-04-20T04:43:37.268Z,13.17
2019-04-20T04:45:48.913Z,12.27
2019-04-20T04:48:27.417Z,12.23
2019-04-20T04:50:58.968Z,11.27
2019-04-20T04:53:40.744Z,10.80
2019-04-20T04:56:00.427Z,10.83
2019-04-20T04:58:27.685Z,10.63
2019-04-20T05:01:05.544Z,10.40
2019-04-20T05:03:46.380Z,11.00
2019-04-20T05:06:21.997Z,10.20
2019-04-20T05:08:41.968Z,9.60
2019-04-20T05:11:08.889Z,9.77
2019-04-20T05:13:45.901Z,9.50
2019-04-20T05:16:33.779Z,9.13
2019-04-20T05:19:05.118Z,9.03
2019-04-20T05:21:39.434Z,8.53
2019-04-20T05:24:09.982Z,8.80
2019-04-20T05:26:50.998Z,7.93
2019-04-20T05:29:06.637Z,7.47
2019-04-20T05:31:33.986Z,8.10
2019-04-20T05:34:29.107Z,7.83
2019-04-20T05:36:49.284Z,8.73
2019-04-20T05:41:51.489Z,7.43
2019-04-20T05:44:27.681Z,7.27
2019-04-20T05:47:05.568Z,6.27
2019-04-20T05:49:34.987Z,7.03
2019-04-20T05:52:18.558Z,7.30
2019-04-20T05:54:51.353Z,7.13
2019-04-20T05:57:23.653Z,6.83
2019-04-20T05:59:51.446Z,7.80
2019-04-20T06:02:16.978Z,6.50
2019-04-20T06:05:00.379Z,7.50
2019-04-20T06:07:24.018Z,7.40
2019-04-20T06:09:54.510Z,7.00
2019-04-20T06:12:19.770Z,7.67
2019-04-20T06:14:52.043Z,5.87
2019-04-20T06:17:37.888Z,7.47
2019-04-20T06:20:15.517Z,6.23
2019-04-20T06:22:41.453Z,7.40
2019-04-20T06:27:45.690Z,7.07
2019-04-20T06:30:13.550Z,7.50
2019-04-20T06:33:38.706Z,7.43
2019-04-20T06:36:13.411Z,6.87
2019-04-20T06:38:49.410Z,7.17
2019-04-20T06:43:40.553Z,7.00
2019-04-20T06:46:09.806Z,9.10
2019-04-20T06:48:44.500Z,7.67
2019-04-20T06:51:18.730Z,8.67
2019-04-20T06:53:46.935Z,9.37
2019-04-20T06:56:29.403Z,8.53
2019-04-20T06:59:03.737Z,8.63
2019-04-20T07:01:38.682Z,11.90
2019-04-20T07:04:31.750Z,10.70
2019-04-20T07:09:19.962Z,7.77
2019-04-20T07:11:35.075Z,6.43
2019-04-20T07:13:57.842Z,6.80
2019-04-20T07:16:46.512Z,8.83
2019-04-20T07:19:30.043Z,6.20
2019-04-20T07:22:23.406Z,6.03
2019-04-20T07:24:45.840Z,6.10
2019-04-20T07:27:12.208Z,4.97
2019-04-20T07:29:46.055Z,4.30
2019-04-20T07:32:06.327Z,4.33
2019-04-20T07:34:47.475Z,4.43
2019-04-20T07:37:46.692Z,4.03
2019-04-20T07:40:04.297Z,3.60
2019-04-20T07:42:35.065Z,4.37
2019-04-20T07:45:10.027Z,4.70
2019-04-20T07:47:42.911Z,4.40
2019-04-20T07:50:01.131Z,4.73
2019-04-20T07:52:20.017Z,3.50
2019-04-20T07:55:26.379Z,4.73
2019-04-20T07:57:37.458Z,4.50
2019-04-20T08:00:13.518Z,4.80
2019-04-20T08:02:52.002Z,4.40
2019-04-20T08:05:15.398Z,3.70
2019-04-20T08:07:45.723Z,3.43
2019-04-20T08:10:12.217Z,3.80
2019-04-20T08:13:04.907Z,4.07
2019-04-20T08:18:04.546Z,3.20
2019-04-20T08:20:31.128Z,3.47
2019-04-20T08:23:06.221Z,6.30
2019-04-20T08:25:32.807Z,3.90
2019-04-20T08:27:57.374Z,4.33
2019-04-20T08:31:06.598Z,10.67
2019-04-20T08:33:44.335Z,3.83
2019-04-20T08:36:16.855Z,4.43
2019-04-20T08:41:14.259Z,4.30
2019-04-20T08:46:20.509Z,5.00
2019-04-20T08:48:50.971Z,6.13
2019-04-20T08:51:19.453Z,6.80
2019-04-20T08:53:53.028Z,5.53
2019-04-20T08:56:18.549Z,6.13
2019-04-20T08:58:38.923Z,7.63
2019-04-20T09:01:14.157Z,6.00
2019-04-20T09:03:51.229Z,4.77
2019-04-20T09:06:30.968Z,4.63
2019-04-20T09:08:57.825Z,4.13
2019-04-20T09:11:30.989Z,4.00
2019-04-20T09:13:54.838Z,4.20
2019-04-20T09:16:26.943Z,2.83
2019-04-20T09:18:58.974Z,2.83
2019-04-20T09:21:34.555Z,2.30
2019-04-20T09:24:21.727Z,2.80
2019-04-20T09:26:42.612Z,2.30
2019-04-20T09:29:12.566Z,2.70
2019-04-20T09:31:43.387Z,2.13
2019-04-20T09:36:56.482Z,1.80
2019-04-20T09:39:44.936Z,1.73
2019-04-20T09:42:15.361Z,1.70
2019-04-20T09:44:50.907Z,2.67
2019-04-20T09:47:34.397Z,3.77
2019-04-20T09:50:26.342Z,2.27
2019-04-20T09:52:59.223Z,1.70
2019-04-20T09:55:24.415Z,2.23
2019-04-20T09:58:01.250Z,1.60
2019-04-20T10:00:35.690Z,2.93
2019-04-20T10:02:48.451Z,2.97
2019-04-20T10:05:19.807Z,1.80
2019-04-20T10:07:56.540Z,2.17
2019-04-20T10:10:31.298Z,1.83
2019-04-20T10:12:54.174Z,2.87
2019-04-20T10:15:27.594Z,3.30
2019-04-20T10:17:56.159Z,2.30
2019-04-20T10:20:31.224Z,1.90
2019-04-20T10:22:58.441Z,1.70
2019-04-20T10:25:28.752Z,1.60
2019-04-20T10:27:58.799Z,2.17
2019-04-20T10:30:28.830Z,1.73
2019-04-20T10:32:59.541Z,2.57
2019-04-20T10:35:29.805Z,3.10
2019-04-20T10:38:07.581Z,3.23
2019-04-20T10:40:46.133Z,3.03
2019-04-20T10:43:10.224Z,1.70
2019-04-20T10:45:41.247Z,1.80
2019-04-20T10:48:11.452Z,2.07
2019-04-20T10:50:41.376Z,1.80
2019-04-20T10:53:12.126Z,2.20
2019-04-20T10:55:43.161Z,2.00
2019-04-20T10:58:13.673Z,2.10
2019-04-20T11:00:46.207Z,1.90
2019-04-20T11:03:17.741Z,1.97
2019-04-20T11:05:48.909Z,2.40
2019-04-20T11:08:20.368Z,3.03
2019-04-20T11:11:01.532Z,1.97
2019-04-20T11:13:23.546Z,2.03
2019-04-20T11:15:54.684Z,1.97
2019-04-20T11:18:25.150Z,2.20
2019-04-20T11:20:55.388Z,4.10
2019-04-20T11:23:26.625Z,1.97
2019-04-20T11:25:57.969Z,1.70
2019-04-20T11:28:28.256Z,1.93
2019-04-20T11:30:58.549Z,3.37
2019-04-20T11:33:29.923Z,2.20
2019-04-20T11:36:01.098Z,2.40
2019-04-20T11:38:31.441Z,2.03
2019-04-20T11:41:10.669Z,1.50
2019-04-20T11:43:33.638Z,1.80
2019-04-20T11:46:04.785Z,2.20
2019-04-20T11:48:34.975Z,2.20
2019-04-20T11:51:05.518Z,1.83
2019-04-20T11:53:36.397Z,2.20
2019-04-20T11:56:13.553Z,2.10
2019-04-20T11:58:38.844Z,2.70
2019-04-20T12:01:17.593Z,1.93
2019-04-20T12:03:56.412Z,2.63
2019-04-20T12:06:16.881Z,2.73
2019-04-20T12:08:47.257Z,2.87
2019-04-20T12:11:26.550Z,2.73
2019-04-20T12:13:49.027Z,2.13
2019-04-20T12:16:19.399Z,1.87
2019-04-20T12:18:50.411Z,3.20
2019-04-20T12:21:21.057Z,5.07
2019-04-20T12:23:51.922Z,2.40
2019-04-20T12:26:22.684Z,2.20
2019-04-20T12:28:53.778Z,8.43
2019-04-20T12:31:27.426Z,2.43
2019-04-20T12:33:55.659Z,2.00
2019-04-20T12:36:26.079Z,1.80
2019-04-20T12:38:57.156Z,1.57
2019-04-20T12:41:37.451Z,1.83
2019-04-20T12:43:59.525Z,2.57
2019-04-20T12:46:31.952Z,1.87
2019-04-20T13:09:22.952Z,5.17
2019-04-20T13:12:04.582Z,1.90
2019-04-20T13:14:46.666Z,2.17
2019-04-20T13:17:16.747Z,1.60
2019-04-20T13:19:47.192Z,1.93
2019-04-20T13:22:17.361Z,3.13
2019-04-20T13:24:47.453Z,1.97
2019-04-20T13:27:18.679Z,3.80
2019-04-20T13:29:52.253Z,3.17
2019-04-20T13:32:21.633Z,12.57
2019-04-20T13:34:52.205Z,23.53
2019-04-20T13:37:22.409Z,2.40
2019-04-20T13:39:53.120Z,1.87
2019-04-20T13:42:27.865Z,1.60
2019-04-20T13:44:57.108Z,1.73
2019-04-20T13:47:30.470Z,1.60
2019-04-20T13:50:01.067Z,1.50
2019-04-20T13:52:32.807Z,1.60
2019-04-20T13:55:03.805Z,2.60
2019-04-20T13:57:35.741Z,1.60
2019-04-20T14:00:13.831Z,1.60
2019-04-20T14:02:46.739Z,1.80
2019-04-20T14:05:18.772Z,1.90
2019-04-20T14:07:49.363Z,1.50
2019-04-20T14:10:19.797Z,1.20
2019-04-20T14:13:00.776Z,1.33
2019-04-20T14:15:22.844Z,1.93
2019-04-20T14:17:53.578Z,1.57
2019-04-20T14:20:24.404Z,1.80
2019-04-20T14:22:56.798Z,1.77
2019-04-20T14:25:27.160Z,1.70
2019-04-20T14:27:57.821Z,1.67
2019-04-20T14:30:29.003Z,1.60
2019-04-20T14:33:10.648Z,6.23
2019-04-20T14:35:42.960Z,2.40
2019-04-20T14:38:17.698Z,2.60
2019-04-20T14:40:54.554Z,2.50
2019-04-20T14:50:00.818Z,3.03
2019-04-20T14:52:31.316Z,3.67
2019-04-20T14:55:01.909Z,2.30
2019-04-20T14:57:32.021Z,3.20
2019-04-20T15:00:09.745Z,9.60
2019-04-20T15:02:40.382Z,4.83
2019-04-20T15:05:10.902Z,4.03
2019-04-20T15:07:41.019Z,3.77
2019-04-20T15:10:11.282Z,3.50
2019-04-20T15:12:49.910Z,3.10
2019-04-20T15:15:14.659Z,2.97
2019-04-20T15:17:47.850Z,2.73
2019-04-20T15:20:23.421Z,2.50
2019-04-20T15:22:54.652Z,2.80
2019-04-20T15:25:27.395Z,2.27
2019-04-20T15:27:58.325Z,2.67
2019-04-20T15:30:28.368Z,2.70
2019-04-20T15:32:59.127Z,7.30
2019-04-20T15:35:30.213Z,6.33
2019-04-20T15:38:00.391Z,109.10
2019-04-20T15:40:31.023Z,83.90
2019-04-20T15:43:10.246Z,138.23
2019-04-20T15:45:34.959Z,181.67
2019-04-20T15:48:44.003Z,62.57
2019-04-20T15:50:51.915Z,9.63
2019-04-20T15:53:22.098Z,7.13
2019-04-20T15:55:52.417Z,16.53
2019-04-20T15:58:22.849Z,110.63
2019-04-20T16:00:54.581Z,7.17
2019-04-20T16:03:31.052Z,23.27
2019-04-20T16:06:05.601Z,47.40
2019-04-20T16:08:38.784Z,4.00
2019-04-20T16:11:09.344Z,5.90
2019-04-20T16:13:44.127Z,8.60
2019-04-20T16:16:12.147Z,6.53
2019-04-20T16:18:43.248Z,6.10
2019-04-20T16:21:20.182Z,3.90
2019-04-20T16:23:48.410Z,6.33
2019-04-20T16:26:26.290Z,4.40
2019-04-20T16:28:57.629Z,3.80
2019-04-20T16:31:28.832Z,3.53
2019-04-20T16:33:59.202Z,2.97
2019-04-20T16:36:30.466Z,3.50
2019-04-20T16:45:50.988Z,5.67
2019-04-20T16:48:28.282Z,8.07
2019-04-20T16:51:00.649Z,8.87
2019-04-20T16:54:50.086Z,36.17
2019-04-20T17:03:19.617Z,34.47
2019-04-20T17:06:08.401Z,45.93
2019-04-20T17:08:44.469Z,29.33
2019-04-20T17:24:15.328Z,8.70
2019-04-20T17:26:48.106Z,12.97
2019-04-20T17:29:23.947Z,13.57
2019-04-20T17:32:15.697Z,12.73
2019-04-20T17:35:01.940Z,12.57
2019-04-20T17:37:24.783Z,25.30
2019-04-20T17:40:11.122Z,45.97
2019-04-20T17:42:46.237Z,39.10
2019-04-20T17:45:10.357Z,109.23
2019-04-20T17:47:52.850Z,59.33
2019-04-20T17:50:27.339Z,34.47
2019-04-20T17:52:57.847Z,10.20
2019-04-20T17:55:33.860Z,15.03
2019-04-20T17:57:57.397Z,16.30
2019-04-20T18:00:38.441Z,18.03
2019-04-20T18:03:25.878Z,16.73
2019-04-20T18:05:56.987Z,24.80
2019-04-20T18:08:29.986Z,27.97
2019-04-20T18:10:53.156Z,28.37
2019-04-20T18:13:19.930Z,32.40
2019-04-20T18:15:59.005Z,29.30
2019-04-20T18:18:33.622Z,28.03
2019-04-20T18:21:01.047Z,27.97
2019-04-20T18:23:36.287Z,29.37
2019-04-20T18:26:22.646Z,29.47
2019-04-20T18:29:00.360Z,25.67
2019-04-20T18:31:26.514Z,24.43
2019-04-20T18:34:02.241Z,16.57
2019-04-20T18:36:35.935Z,13.50
2019-04-20T18:39:04.989Z,10.63
2019-04-20T18:41:41.886Z,11.93
2019-04-20T18:44:06.522Z,12.07
2019-04-20T18:47:00.698Z,14.00
2019-04-20T18:49:23.668Z,17.33
2019-04-20T18:51:41.712Z,14.93
2019-04-20T18:54:19.257Z,8.03
2019-04-20T18:56:47.540Z,9.57
2019-04-20T18:59:15.280Z,9.67
2019-04-20T19:01:46.760Z,10.23
2019-04-20T19:04:17.660Z,8.93
2019-04-20T19:06:48.037Z,8.53
2019-04-20T19:09:24.590Z,10.40
2019-04-20T19:11:57.215Z,11.67
2019-04-20T19:14:37.171Z,18.97
2019-04-20T19:17:34.474Z,19.67
2019-04-20T19:19:58.231Z,26.60
2019-04-20T19:22:27.824Z,29.33
2019-04-20T19:24:58.084Z,27.30
2019-04-20T19:27:36.065Z,25.07
2019-04-20T19:30:17.828Z,28.90
2019-04-20T19:32:45.291Z,24.13
2019-04-20T19:35:14.546Z,26.33
2019-04-20T19:37:49.285Z,48.50
2019-04-20T19:40:18.287Z,42.20
2019-04-20T19:42:54.556Z,191.43
2019-04-20T19:45:36.197Z,51.90
2019-04-20T19:48:00.123Z,52.57
2019-04-20T19:50:41.336Z,38.80
2019-04-20T19:53:12.741Z,34.37
2019-04-20T19:55:31.090Z,33.70
2019-04-20T19:58:02.991Z,30.63
2019-04-20T20:00:24.979Z,34.37
2019-04-20T20:02:55.259Z,36.83
2019-04-20T20:05:33.801Z,42.07
2019-04-20T20:08:06.456Z,41.30
2019-04-20T20:10:33.938Z,41.97
2019-04-20T20:13:02.641Z,51.43
2019-04-20T20:15:36.397Z,43.03
2019-04-20T20:18:27.537Z,37.67
2019-04-20T20:20:55.724Z,45.30
2019-04-20T20:23:10.040Z,41.27
2019-04-20T20:25:44.646Z,32.73
2019-04-20T20:28:19.011Z,42.60
2019-04-20T20:30:56.937Z,38.23
2019-04-20T20:33:35.838Z,41.43
2019-04-20T20:35:58.645Z,43.80
2019-04-20T20:38:28.000Z,41.67
2019-04-20T20:40:58.924Z,39.70
2019-04-20T20:43:38.239Z,36.70
2019-04-20T20:46:07.908Z,41.40
2019-04-20T20:48:38.795Z,31.80
2019-04-20T20:51:14.171Z,28.27
2019-04-20T20:53:42.847Z,35.00
2019-04-20T20:56:10.772Z,34.60
2019-04-20T20:58:45.620Z,26.17
2019-04-20T21:01:14.430Z,20.27
2019-04-20T21:03:42.100Z,20.10
2019-04-20T21:06:09.573Z,19.57
2019-04-20T21:08:45.402Z,17.97
2019-04-20T21:11:19.589Z,15.80
2019-04-20T21:13:47.281Z,16.13
2019-04-20T21:16:20.342Z,13.63
2019-04-20T21:19:01.996Z,15.47
2019-04-20T21:21:36.078Z,15.67
2019-04-20T21:23:59.912Z,16.17
2019-04-20T21:26:30.437Z,15.27
2019-04-20T21:28:55.509Z,16.03
2019-04-20T21:31:28.956Z,15.90
2019-04-20T21:34:01.721Z,15.50
2019-04-20T21:36:31.446Z,20.23
2019-04-20T21:39:01.649Z,18.63
2019-04-20T21:41:31.689Z,20.43
2019-04-20T21:44:05.530Z,19.67
2019-04-20T21:46:40.870Z,20.13
2019-04-20T21:49:18.192Z,18.47
2019-04-20T21:51:44.159Z,17.97
2019-04-20T21:54:09.591Z,20.87
2019-04-20T21:56:46.113Z,21.07
2019-04-20T21:59:20.624Z,22.63
2019-04-20T22:01:55.081Z,24.53
2019-04-20T22:04:14.831Z,24.33
2019-04-20T22:06:46.460Z,25.27
2019-04-20T22:09:18.208Z,26.40
2019-04-20T22:11:49.505Z,29.47
2019-04-20T22:14:24.262Z,28.10
2019-04-20T22:16:54.804Z,25.27
2019-04-20T22:19:34.515Z,20.03
2019-04-20T22:22:05.515Z,20.70
2019-04-20T22:24:42.169Z,18.07
2019-04-20T22:27:08.387Z,19.47
2019-04-20T22:29:30.357Z,18.70
2019-04-20T22:32:07.445Z,18.47
2019-04-20T22:34:33.711Z,18.77
2019-04-20T22:37:04.442Z,21.30
2019-04-20T22:39:44.633Z,25.13
2019-04-20T22:42:12.406Z,26.67
2019-04-20T22:44:41.132Z,30.53
2019-04-20T22:47:17.131Z,26.13
2019-04-20T22:50:05.584Z,26.93
2019-04-20T22:52:30.541Z,45.57
2019-04-20T22:55:01.287Z,44.53
2019-04-20T22:57:33.425Z,59.50
2019-04-20T22:59:59.626Z,60.80
2019-04-20T23:02:23.623Z,57.67
2019-04-20T23:04:54.915Z,54.67
2019-04-20T23:07:26.407Z,58.20
2019-04-20T23:09:59.740Z,54.00
2019-04-20T23:12:29.222Z,48.07
2019-04-20T23:15:00.503Z,44.10
2019-04-20T23:17:37.211Z,38.90
2019-04-20T23:20:03.521Z,35.93
2019-04-20T23:22:40.369Z,35.87
2019-04-20T23:25:07.135Z,34.53
2019-04-20T23:27:39.089Z,35.10
2019-04-20T23:30:14.834Z,35.87
2019-04-20T23:32:42.169Z,35.23
2019-04-20T23:35:18.132Z,38.43
2019-04-20T23:37:46.294Z,41.00
2019-04-20T23:40:16.864Z,41.63
2019-04-20T23:42:51.821Z,43.70
2019-04-20T23:45:44.727Z,42.10
2019-04-20T23:48:14.281Z,42.00
2019-04-20T23:51:01.150Z,40.67
2019-04-20T23:53:33.880Z,44.73
2019-04-20T23:55:49.907Z,45.87
2019-04-20T23:58:21.165Z,42.07
